createdAt,value
2018-05-03T00:00:39.218Z,99940.50
2018-05-03T00:03:07.084Z,99939.16
2018-05-03T00:05:34.952Z,99931.39
2018-05-03T00:08:02.821Z,99927.48
2018-05-03T00:10:30.688Z,99930.52
2018-05-03T00:12:58.399Z,99936.66
2018-05-03T00:15:26.215Z,99943.48
2018-05-03T00:17:53.937Z,99943.34
2018-05-03T00:20:21.743Z,99945.04
2018-05-03T00:22:49.616Z,99944.23
2018-05-03T00:25:17.480Z,99944.66
2018-05-03T00:27:45.223Z,99944.77
2018-05-03T00:30:13.006Z,99943.33
2018-05-03T00:32:40.771Z,99942.09
2018-05-03T00:35:08.641Z,99946.42
2018-05-03T00:37:36.339Z,99944.78
2018-05-03T00:40:04.167Z,99943.06
2018-05-03T00:42:31.870Z,99946.58
2018-05-03T00:44:59.694Z,99952.72
2018-05-03T00:47:27.464Z,99956.10
2018-05-03T00:49:55.173Z,99960.80
2018-05-03T00:52:22.992Z,99959.88
2018-05-03T00:54:50.753Z,99950.31
2018-05-03T00:57:18.619Z,99958.62
2018-05-03T00:59:46.386Z,99955.72
2018-05-03T01:02:14.047Z,99953.88
2018-05-03T01:04:41.700Z,99955.41
2018-05-03T01:07:09.476Z,99958.04
2018-05-03T01:09:37.333Z,99959.16
2018-05-03T01:12:05.003Z,99962.00
2018-05-03T01:14:32.766Z,99962.27
2018-05-03T01:17:00.481Z,99966.34
2018-05-03T01:19:28.397Z,99970.42
2018-05-03T01:21:56.213Z,99977.86
2018-05-03T01:24:23.925Z,99982.20
2018-05-03T01:26:51.795Z,99984.61
2018-05-03T01:29:19.767Z,99988.53
2018-05-03T01:31:47.535Z,99989.27
2018-05-03T01:34:15.379Z,99979.58
2018-05-03T01:36:43.162Z,99990.33
2018-05-03T01:39:11.001Z,99983.00
2018-05-03T01:41:38.746Z,99990.97
2018-05-03T01:44:06.562Z,99987.84
2018-05-03T01:46:34.578Z,99995.92
2018-05-03T01:49:02.297Z,99993.83
2018-05-03T01:51:30.056Z,99991.09
2018-05-03T01:53:57.905Z,99994.83
2018-05-03T01:56:25.599Z,99991.63
2018-05-03T01:58:53.451Z,99989.88
2018-05-03T02:01:21.417Z,99982.41
2018-05-03T02:03:49.190Z,99989.00
2018-05-03T02:06:16.948Z,99987.55
2018-05-03T02:08:44.678Z,99988.50
2018-05-03T02:11:12.421Z,99983.55
2018-05-03T02:13:40.242Z,99988.05
2018-05-03T02:16:08.006Z,99983.05
2018-05-03T02:18:35.745Z,99985.90
2018-05-03T02:21:03.488Z,99983.91
2018-05-03T02:23:31.190Z,99991.61
2018-05-03T02:25:59.062Z,99991.23
2018-05-03T02:28:26.894Z,99992.79
2018-05-03T02:30:54.594Z,99999.02
2018-05-03T02:33:22.251Z,100006.35
2018-05-03T02:35:50.112Z,100002.39
2018-05-03T02:38:17.979Z,100006.70
2018-05-03T02:40:45.694Z,100005.33
2018-05-03T02:43:13.517Z,100004.45
2018-05-03T02:45:41.276Z,99995.23
2018-05-03T02:48:09.149Z,99997.91
2018-05-03T02:50:37.019Z,100001.52
2018-05-03T02:53:04.779Z,99994.32
2018-05-03T02:55:32.544Z,100004.79
2018-05-03T02:58:17.717Z,99999.83
2018-05-03T03:01:03.096Z,99995.94
2018-05-03T03:03:48.221Z,99990.94
2018-05-03T03:06:33.609Z,99992.38
2018-05-03T03:09:18.925Z,99999.74
2018-05-03T03:12:02.351Z,99996.81
2018-05-03T03:14:47.829Z,99993.64
2018-05-03T03:21:01.133Z,99996.67
2018-05-03T03:23:46.403Z,99996.19
2018-05-03T03:29:57.865Z,100001.00
2018-05-03T03:32:37.521Z,99998.42
2018-05-03T03:38:37.346Z,99988.69
2018-05-03T03:41:17.091Z,99998.63
2018-05-03T03:43:56.631Z,99999.73
2018-05-03T03:46:24.293Z,100002.84
2018-05-03T03:48:52.163Z,100006.89
2018-05-03T03:51:20.027Z,100010.34
2018-05-03T03:53:47.896Z,100021.97
2018-05-03T03:56:15.559Z,100028.56
2018-05-03T03:58:43.317Z,100038.16
2018-05-03T04:01:11.087Z,100034.69
2018-05-03T04:03:38.896Z,100030.95
2018-05-03T04:06:06.716Z,100033.78
2018-05-03T04:08:34.584Z,100029.53
2018-05-03T04:11:02.246Z,100036.67
2018-05-03T04:13:30.114Z,100033.09
2018-05-03T04:15:57.779Z,100049.61
2018-05-03T04:18:37.625Z,100045.02
2018-05-03T04:21:17.163Z,100042.05
2018-05-03T04:24:11.548Z,100044.14
2018-05-03T04:26:39.421Z,100047.11
2018-05-03T04:29:07.191Z,100050.53
2018-05-03T04:31:34.947Z,100042.01
2018-05-03T04:34:02.762Z,100037.09
2018-05-03T04:36:30.579Z,100044.62
2018-05-03T04:38:58.230Z,100044.73
2018-05-03T04:41:25.966Z,100044.97
2018-05-03T04:43:53.703Z,100051.61
2018-05-03T04:46:21.397Z,100049.00
2018-05-03T04:48:49.087Z,100048.89
2018-05-03T04:51:16.932Z,100048.33
2018-05-03T04:53:44.694Z,100052.31
2018-05-03T04:56:12.388Z,100060.43
2018-05-03T04:58:40.149Z,100069.50
2018-05-03T05:01:07.920Z,100066.10
2018-05-03T05:03:35.766Z,100063.48
2018-05-03T05:06:03.442Z,100077.92
2018-05-03T05:08:31.210Z,100085.28
2018-05-03T05:10:58.933Z,100093.39
2018-05-03T05:13:26.738Z,100095.61
2018-05-03T05:15:54.567Z,100103.86
2018-05-03T05:18:22.369Z,100106.92
2018-05-03T05:20:50.237Z,100108.58
2018-05-03T05:23:18.001Z,100114.19
2018-05-03T05:25:45.868Z,100115.11
2018-05-03T05:28:13.530Z,100115.95
2018-05-03T05:30:41.406Z,100125.72
2018-05-03T05:33:09.270Z,100119.45
2018-05-03T05:35:37.134Z,100118.55
2018-05-03T05:38:04.796Z,100124.27
2018-05-03T05:40:32.660Z,100120.02
2018-05-03T05:43:00.529Z,100128.23
2018-05-03T05:45:28.339Z,100128.70
2018-05-03T05:47:56.158Z,100134.23
2018-05-03T05:50:23.976Z,100129.31
2018-05-03T05:52:51.789Z,100137.59
2018-05-03T05:55:19.656Z,100145.22
2018-05-03T05:57:47.472Z,100150.11
2018-05-03T06:00:15.341Z,100152.80
2018-05-03T06:02:43.052Z,100159.75
2018-05-03T06:05:10.816Z,100156.91
2018-05-03T06:07:38.470Z,100157.92
2018-05-03T06:10:06.345Z,100155.21
2018-05-03T06:12:34.217Z,100155.75
2018-05-03T06:15:02.082Z,100163.30
2018-05-03T06:17:29.806Z,100157.39
2018-05-03T06:19:57.550Z,100170.62
2018-05-03T06:22:25.373Z,100177.88
2018-05-03T06:24:53.154Z,100182.23
2018-05-03T06:27:20.898Z,100184.23
2018-05-03T06:29:48.571Z,100192.12
2018-05-03T06:32:16.432Z,100196.41
2018-05-03T06:34:44.297Z,100194.05
2018-05-03T06:37:12.260Z,100207.89
2018-05-03T06:39:40.214Z,100205.95
2018-05-03T06:42:08.239Z,100202.82
2018-05-03T06:44:36.187Z,100212.34
2018-05-03T06:47:04.048Z,100215.09
2018-05-03T06:49:32.074Z,100227.33
2018-05-03T06:51:59.887Z,100231.70
2018-05-03T06:54:27.707Z,100227.27
2018-05-03T06:56:55.515Z,100244.37
2018-05-03T06:59:23.339Z,100234.41
2018-05-03T07:01:51.142Z,100241.07
2018-05-03T07:04:19.014Z,100248.94
2018-05-03T07:06:46.674Z,100249.41
2018-05-03T07:09:14.437Z,100261.30
2018-05-03T07:11:42.405Z,100253.66
2018-05-03T07:14:10.169Z,100246.92
2018-05-03T07:16:37.985Z,100265.78
2018-05-03T07:19:05.800Z,100261.73
2018-05-03T07:21:33.565Z,100261.32
2018-05-03T07:24:01.331Z,100271.19
2018-05-03T07:26:29.093Z,100280.84
2018-05-03T07:28:56.861Z,100277.43
2018-05-03T07:31:24.827Z,100286.23
2018-05-03T07:33:52.483Z,100284.20
2018-05-03T07:36:20.253Z,100282.73
2018-05-03T07:38:47.982Z,100277.77
2018-05-03T07:41:15.782Z,100284.79
2018-05-03T07:43:43.490Z,100282.72
2018-05-03T07:46:11.204Z,100294.59
2018-05-03T07:48:38.927Z,100295.13
2018-05-03T07:51:06.632Z,100299.59
2018-05-03T07:53:34.400Z,100295.95
2018-05-03T07:56:02.367Z,100295.66
2018-05-03T07:58:30.300Z,100295.38
2018-05-03T08:00:57.999Z,100296.32
2018-05-03T08:03:25.769Z,100291.40
2018-05-03T08:05:53.432Z,100292.75
2018-05-03T08:08:21.193Z,100288.64
2018-05-03T08:10:49.061Z,100296.59
2018-05-03T08:13:16.793Z,100305.29
2018-05-03T08:15:44.588Z,100299.07
2018-05-03T08:18:12.403Z,100288.02
2018-05-03T08:20:40.170Z,100295.52
2018-05-03T08:23:07.983Z,100303.31
2018-05-03T08:25:35.850Z,100309.56
2018-05-03T08:28:03.616Z,100314.00
2018-05-03T08:30:31.484Z,100315.92
2018-05-03T08:32:59.141Z,100310.55
2018-05-03T08:35:26.906Z,100318.58
2018-05-03T08:37:54.573Z,100316.45
2018-05-03T08:40:22.438Z,100318.41
2018-05-03T08:42:50.508Z,100314.09
2018-05-03T08:45:18.374Z,100309.97
2018-05-03T08:47:46.082Z,100323.38
2018-05-03T08:50:13.904Z,100328.66
2018-05-03T08:52:41.667Z,100338.34
2018-05-03T08:55:09.428Z,100331.93
2018-05-03T08:57:37.196Z,100330.75
2018-05-03T09:00:05.211Z,100338.39
2018-05-03T09:02:32.935Z,100333.02
2018-05-03T09:05:00.603Z,100341.88
2018-05-03T09:07:28.473Z,100345.13
2018-05-03T09:09:56.280Z,100349.36
2018-05-03T09:12:23.989Z,100349.80
2018-05-03T09:14:51.650Z,100354.27
2018-05-03T09:17:19.415Z,100352.89
2018-05-03T09:19:47.180Z,100352.02
2018-05-03T09:22:15.046Z,100348.69
2018-05-03T09:24:42.805Z,100355.39
2018-05-03T09:27:10.577Z,100353.41
2018-05-03T09:29:38.295Z,100353.25
2018-05-03T09:32:06.058Z,100353.30
2018-05-03T09:34:33.870Z,100350.89
2018-05-03T09:37:01.749Z,100358.77
2018-05-03T09:39:29.500Z,100345.42
2018-05-03T09:41:57.366Z,100342.57
2018-05-03T09:44:25.036Z,100350.81
2018-05-03T09:46:52.999Z,100346.56
2018-05-03T09:49:20.761Z,100341.35
2018-05-03T09:51:48.493Z,100343.66
2018-05-03T09:54:16.260Z,100343.77
2018-05-03T09:56:44.056Z,100349.60
2018-05-03T09:59:11.819Z,100357.31
2018-05-03T10:01:39.585Z,100350.22
2018-05-03T10:04:07.452Z,100351.48
2018-05-03T10:06:35.216Z,100348.55
2018-05-03T10:09:03.082Z,100354.59
2018-05-03T10:11:30.845Z,100354.55
2018-05-03T10:13:58.715Z,100363.88
2018-05-03T10:16:26.480Z,100358.28
2018-05-03T10:18:54.142Z,100359.28
2018-05-03T10:21:21.905Z,100360.92
2018-05-03T10:23:49.634Z,100358.49
2018-05-03T10:26:17.435Z,100367.02
2018-05-03T10:28:45.403Z,100368.92
2018-05-03T10:31:13.169Z,100361.17
2018-05-03T10:33:40.783Z,100360.25
2018-05-03T10:36:08.804Z,100359.33
2018-05-03T10:38:36.461Z,100361.08
2018-05-03T10:41:04.230Z,100361.39
2018-05-03T10:43:32.085Z,100358.80
2018-05-03T10:45:59.813Z,100343.81
2018-05-03T10:48:27.621Z,100347.73
2018-05-03T10:50:55.387Z,100354.84
2018-05-03T10:53:23.050Z,100353.24
2018-05-03T10:55:50.712Z,100350.07
2018-05-03T10:58:18.436Z,100341.87
2018-05-03T11:00:46.132Z,100343.74
2018-05-03T11:03:14.003Z,100350.23
2018-05-03T11:05:41.973Z,100346.66
2018-05-03T11:08:09.750Z,100353.64
2018-05-03T11:10:37.506Z,100356.17
2018-05-03T11:13:05.266Z,100353.38
2018-05-03T11:15:32.990Z,100350.65
2018-05-03T11:18:00.689Z,100352.48
2018-05-03T11:20:28.354Z,100342.29
2018-05-03T11:22:56.066Z,100355.16
2018-05-03T11:25:23.985Z,100347.91
2018-05-03T11:27:51.750Z,100348.33
2018-05-03T11:30:19.493Z,100355.99
2018-05-03T11:32:47.279Z,100351.91
2018-05-03T11:35:15.254Z,100344.42
2018-05-03T11:37:43.321Z,100348.97
2018-05-03T11:40:11.085Z,100342.65
2018-05-03T11:42:38.765Z,100347.19
2018-05-03T11:45:06.511Z,100350.89
2018-05-03T11:47:34.166Z,100344.75
2018-05-03T11:50:01.939Z,100345.19
2018-05-03T11:52:29.801Z,100336.52
2018-05-03T11:54:57.570Z,100340.96
2018-05-03T11:57:25.426Z,100339.84
2018-05-03T11:59:53.100Z,100340.48
2018-05-03T12:02:20.904Z,100340.88
2018-05-03T12:04:48.528Z,100337.72
2018-05-03T12:07:16.290Z,100338.97
2018-05-03T12:09:44.158Z,100336.78
2018-05-03T12:12:12.009Z,100332.55
2018-05-03T12:14:39.787Z,100321.06
2018-05-03T12:17:07.489Z,100335.08
2018-05-03T12:19:35.316Z,100329.27
2018-05-03T12:22:03.080Z,100325.73
2018-05-03T12:24:31.018Z,100318.89
2018-05-03T12:26:58.715Z,100327.63
2018-05-03T12:29:26.374Z,100319.98
2018-05-03T12:31:54.138Z,100310.03
2018-05-03T12:34:21.903Z,100319.94
2018-05-03T12:36:49.670Z,100321.30
2018-05-03T12:39:17.533Z,100314.08
2018-05-03T12:41:45.303Z,100315.42
2018-05-03T12:44:13.066Z,100319.73
2018-05-03T12:46:40.828Z,100325.59
2018-05-03T12:49:08.596Z,100326.95
2018-05-03T12:51:36.253Z,100324.33
2018-05-03T12:54:04.019Z,100316.64
2018-05-03T12:56:31.784Z,100317.94
2018-05-03T12:58:59.557Z,100306.16
2018-05-03T13:01:27.519Z,100319.26
2018-05-03T13:03:55.386Z,100327.84
2018-05-03T13:06:23.151Z,100319.06
2018-05-03T13:08:50.915Z,100313.89
2018-05-03T13:11:18.678Z,100322.93
2018-05-03T13:13:46.341Z,100325.49
2018-05-03T13:16:14.211Z,100313.42
2018-05-03T13:18:41.869Z,100318.75
2018-05-03T13:21:10.611Z,100312.94
2018-05-03T13:23:38.477Z,100315.08
2018-05-03T13:26:06.180Z,100313.59
2018-05-03T13:28:33.913Z,100309.92
2018-05-03T13:31:01.653Z,100307.27
2018-05-03T13:33:29.468Z,100312.16
2018-05-03T13:35:57.110Z,100319.55
2018-05-03T13:38:24.909Z,100305.87
2018-05-03T13:40:52.671Z,100304.84
2018-05-03T13:43:20.435Z,100309.58
2018-05-03T13:45:48.302Z,100307.70
2018-05-03T13:48:16.064Z,100315.78
2018-05-03T13:50:44.036Z,100304.86
2018-05-03T13:53:11.689Z,100299.36
2018-05-03T13:55:39.456Z,100306.98
2018-05-03T13:58:07.125Z,100305.98
2018-05-03T14:00:34.790Z,100303.67
2018-05-03T14:03:02.601Z,100299.37
2018-05-03T14:05:30.419Z,100288.94
2018-05-03T14:07:58.286Z,100301.45
2018-05-03T14:10:25.946Z,100301.79
2018-05-03T14:12:53.782Z,100297.16
2018-05-03T14:15:21.477Z,100290.25
2018-05-03T14:17:49.345Z,100287.98
2018-05-03T14:20:17.006Z,100292.81
2018-05-03T14:22:44.712Z,100291.10
2018-05-03T14:25:12.432Z,100279.48
2018-05-03T14:27:40.096Z,100279.66
2018-05-03T14:30:07.861Z,100293.99
2018-05-03T14:32:35.626Z,100298.41
2018-05-03T14:35:03.392Z,100294.52
2018-05-03T14:37:31.213Z,100291.68
2018-05-03T14:39:59.021Z,100291.94
2018-05-03T14:42:26.787Z,100289.28
2018-05-03T14:44:54.451Z,100288.98
2018-05-03T14:47:22.343Z,100290.59
2018-05-03T14:49:49.978Z,100300.00
2018-05-03T14:52:17.847Z,100293.98
2018-05-03T14:54:45.810Z,100294.99
2018-05-03T14:57:13.472Z,100302.58
2018-05-03T14:59:41.339Z,100300.41
2018-05-03T15:02:09.106Z,100305.58
2018-05-03T15:04:36.867Z,100305.30
2018-05-03T15:07:04.592Z,100304.50
2018-05-03T15:09:32.397Z,100294.87
2018-05-03T15:12:00.366Z,100296.11
2018-05-03T15:14:28.233Z,100301.24
2018-05-03T15:16:55.960Z,100296.98
2018-05-03T15:19:23.659Z,100298.81
2018-05-03T15:21:51.410Z,100303.05
2018-05-03T15:24:19.127Z,100295.02
2018-05-03T15:26:46.850Z,100307.75
2018-05-03T15:29:14.614Z,100300.45
2018-05-03T15:31:42.379Z,100302.55
2018-05-03T15:34:10.146Z,100299.23
2018-05-03T15:36:38.005Z,100297.58
2018-05-03T15:39:05.982Z,100301.87
2018-05-03T15:41:33.637Z,100308.91
2018-05-03T15:44:01.411Z,100305.58
2018-05-03T15:46:29.479Z,100310.00
2018-05-03T15:48:57.143Z,100310.53
2018-05-03T15:51:24.904Z,100308.81
2018-05-03T15:53:52.641Z,100314.88
2018-05-03T15:56:20.388Z,100322.54
2018-05-03T15:58:48.099Z,100325.98
2018-05-03T16:01:15.860Z,100318.59
2018-05-03T16:03:43.515Z,100325.52
2018-05-03T16:06:11.276Z,100314.16
2018-05-03T16:08:39.051Z,100319.13
2018-05-03T16:11:06.918Z,100319.34
2018-05-03T16:13:34.682Z,100314.02
2018-05-03T16:16:02.446Z,100318.23
2018-05-03T16:18:30.211Z,100318.78
2018-05-03T16:20:57.987Z,100323.58
2018-05-03T16:23:25.638Z,100334.80
2018-05-03T16:25:53.505Z,100334.63
2018-05-03T16:28:21.168Z,100327.78
2018-05-03T16:30:49.034Z,100324.45
2018-05-03T16:33:16.694Z,100322.24
2018-05-03T16:35:44.557Z,100323.09
2018-05-03T16:38:12.224Z,100325.05
2018-05-03T16:40:39.953Z,100330.52
2018-05-03T16:43:07.756Z,100329.53
2018-05-03T16:45:35.481Z,100338.97
2018-05-03T16:48:03.283Z,100341.47
2018-05-03T16:50:31.048Z,100338.02
2018-05-03T16:52:58.916Z,100334.16
2018-05-03T16:55:26.640Z,100326.30
2018-05-03T16:57:54.443Z,100331.83
2018-05-03T17:00:22.208Z,100336.89
2018-05-03T17:02:50.018Z,100331.63
2018-05-03T17:05:17.945Z,100331.67
2018-05-03T17:07:45.876Z,100329.45
2018-05-03T17:10:13.678Z,100324.45
2018-05-03T17:12:41.543Z,100331.45
2018-05-03T17:15:09.308Z,100332.20
2018-05-03T17:17:37.071Z,100333.89
2018-05-03T17:20:04.785Z,100334.72
2018-05-03T17:22:32.556Z,100333.08
2018-05-03T17:25:00.363Z,100342.00
2018-05-03T17:27:28.231Z,100340.36
2018-05-03T17:29:55.996Z,100349.92
2018-05-03T17:32:23.824Z,100344.29
2018-05-03T17:34:51.627Z,100350.11
2018-05-03T17:37:19.392Z,100359.05
2018-05-03T17:39:47.157Z,100359.47
2018-05-03T17:42:14.912Z,100361.06
2018-05-03T17:44:42.787Z,100355.87
2018-05-03T17:47:10.451Z,100361.36
2018-05-03T17:49:38.112Z,100359.02
2018-05-03T17:52:05.979Z,100373.75
2018-05-03T17:54:33.829Z,100376.72
2018-05-03T17:57:01.568Z,100367.98
2018-05-03T17:59:29.374Z,100377.16
2018-05-03T18:01:57.101Z,100378.78
2018-05-03T18:04:24.800Z,100382.52
2018-05-03T18:06:52.671Z,100382.08
2018-05-03T18:09:20.534Z,100393.02
2018-05-03T18:11:48.243Z,100405.20
2018-05-03T18:14:16.064Z,100405.94
2018-05-03T18:16:43.828Z,100396.68
2018-05-03T18:19:12.412Z,100419.62
2018-05-03T18:21:40.279Z,100423.66
2018-05-03T18:24:08.155Z,100420.79
2018-05-03T18:26:35.910Z,100418.73
2018-05-03T18:29:03.675Z,100432.68
2018-05-03T18:31:31.441Z,100439.42
2018-05-03T18:33:59.166Z,100442.25
2018-05-03T18:36:26.907Z,100441.92
2018-05-03T18:38:54.674Z,100443.11
2018-05-03T18:41:22.395Z,100446.55
2018-05-03T18:43:50.267Z,100450.95
2018-05-03T18:46:18.130Z,100452.78
2018-05-03T18:48:45.840Z,100452.19
2018-05-03T18:51:13.660Z,100453.38
2018-05-03T18:53:41.629Z,100458.13
2018-05-03T18:56:09.494Z,100461.09
2018-05-03T18:58:37.157Z,100464.09
2018-05-03T19:01:04.985Z,100472.02
2018-05-03T19:03:32.779Z,100478.16
2018-05-03T19:06:00.550Z,100479.48
2018-05-03T19:08:28.310Z,100488.75
2018-05-03T19:10:56.082Z,100491.67
2018-05-03T19:13:23.754Z,100494.19
2018-05-03T19:15:51.506Z,100498.00
2018-05-03T19:18:19.218Z,100503.59
2018-05-03T19:20:47.108Z,100502.58
2018-05-03T19:23:14.803Z,100502.00
2018-05-03T19:25:42.571Z,100511.09
2018-05-03T19:28:10.434Z,100518.22
2018-05-03T19:30:38.151Z,100522.69
2018-05-03T19:33:05.960Z,100526.58
2018-05-03T19:35:33.652Z,100527.53
2018-05-03T19:38:01.595Z,100529.49
2018-05-03T19:40:29.461Z,100532.77
2018-05-03T19:42:57.245Z,100527.80
2018-05-03T19:45:24.989Z,100530.07
2018-05-03T19:47:52.643Z,100541.31
2018-05-03T19:50:20.253Z,100535.48
2018-05-03T19:52:48.039Z,100550.95
2018-05-03T19:55:15.915Z,100541.97
2018-05-03T19:57:43.707Z,100555.27
2018-05-03T20:00:11.439Z,100560.62
2018-05-03T20:02:39.193Z,100565.74
2018-05-03T20:05:06.903Z,100564.88
2018-05-03T20:07:34.660Z,100571.18
2018-05-03T20:10:02.530Z,100568.72
2018-05-03T20:12:30.231Z,100573.48
2018-05-03T20:14:58.059Z,100577.11
2018-05-03T20:17:25.928Z,100585.27
2018-05-03T20:19:53.867Z,100580.02
2018-05-03T20:22:21.761Z,100585.19
2018-05-03T20:24:49.540Z,100581.59
2018-05-03T20:27:17.301Z,100587.38
2018-05-03T20:29:45.237Z,100583.41
2018-05-03T20:32:13.338Z,100586.53
2018-05-03T20:34:41.287Z,100593.84
2018-05-03T20:37:09.279Z,100589.26
2018-05-03T20:39:37.297Z,100582.96
2018-05-03T20:42:05.187Z,100586.47
2018-05-03T20:44:33.082Z,100580.75
2018-05-03T20:47:01.052Z,100586.52
2018-05-03T20:49:29.091Z,100588.20
2018-05-03T20:51:56.990Z,100588.17
2018-05-03T20:54:24.949Z,100586.22
2018-05-03T20:56:52.827Z,100594.94
2018-05-03T20:59:20.692Z,100589.67
2018-05-03T21:01:48.491Z,100586.08
2018-05-03T21:04:16.429Z,100589.48
2018-05-03T21:06:44.352Z,100584.24
2018-05-03T21:09:12.263Z,100584.75
2018-05-03T21:11:40.237Z,100586.33
2018-05-03T21:14:08.207Z,100589.20
2018-05-03T21:16:36.172Z,100587.86
2018-05-03T21:19:04.038Z,100599.22
2018-05-03T21:21:31.904Z,100594.70
2018-05-03T21:23:59.773Z,100603.31
2018-05-03T21:26:27.682Z,100607.09
2018-05-03T21:28:55.498Z,100607.32
2018-05-03T21:31:23.263Z,100611.41
2018-05-03T21:33:50.981Z,100616.57
2018-05-03T21:36:18.746Z,100613.72
2018-05-03T21:38:46.457Z,100621.06
2018-05-03T21:41:14.219Z,100627.28
2018-05-03T21:43:42.086Z,100624.33
2018-05-03T21:46:09.853Z,100628.45
2018-05-03T21:48:37.818Z,100635.16
2018-05-03T21:51:05.649Z,100630.53
2018-05-03T21:53:33.451Z,100631.47
2018-05-03T21:56:01.180Z,100634.81
2018-05-03T21:58:28.979Z,100624.55
2018-05-03T22:00:56.841Z,100629.45
2018-05-03T22:03:24.714Z,100624.51
2018-05-03T22:05:52.369Z,100627.28
2018-05-03T22:08:20.139Z,100630.20
2018-05-03T22:10:47.977Z,100624.20
2018-05-03T22:13:15.670Z,100625.97
2018-05-03T22:15:43.387Z,100626.87
2018-05-03T22:18:11.197Z,100633.21
2018-05-03T22:20:38.847Z,100632.41
2018-05-03T22:23:06.454Z,100630.48
2018-05-03T22:25:34.179Z,100639.12
2018-05-03T22:28:01.950Z,100638.98
2018-05-03T22:30:29.816Z,100640.95
2018-05-03T22:32:57.477Z,100646.02
2018-05-03T22:35:25.345Z,100642.79
2018-05-03T22:37:53.000Z,100643.56
2018-05-03T22:40:20.874Z,100639.92
2018-05-03T22:42:48.605Z,100638.44
2018-05-03T22:45:16.402Z,100637.73
2018-05-03T22:47:44.063Z,100638.53
2018-05-03T22:50:11.822Z,100636.00
2018-05-03T22:52:39.699Z,100636.13
2018-05-03T22:55:07.665Z,100631.55
2018-05-03T22:57:35.430Z,100636.83
2018-05-03T23:00:03.188Z,100628.39
2018-05-03T23:02:31.033Z,100635.72
2018-05-03T23:04:59.033Z,100630.86
2018-05-03T23:07:26.736Z,100628.62
2018-05-03T23:09:54.478Z,100624.88
2018-05-03T23:12:22.221Z,100616.93
2018-05-03T23:14:49.985Z,100622.84
2018-05-03T23:17:18.774Z,100616.09
2018-05-03T23:19:46.539Z,100625.77
2018-05-03T23:22:14.308Z,100617.63
2018-05-03T23:24:42.026Z,100623.53
2018-05-03T23:27:10.653Z,100621.98
2018-05-03T23:29:38.310Z,100621.19
2018-05-03T23:32:06.130Z,100626.87
2018-05-03T23:34:33.942Z,100621.39
2018-05-03T23:37:01.709Z,100623.30
2018-05-03T23:39:29.474Z,100628.15
2018-05-03T23:41:57.291Z,100625.94
2018-05-03T23:44:25.105Z,100627.73
2018-05-03T23:46:52.971Z,100623.83
2018-05-03T23:49:20.737Z,100623.48
2018-05-03T23:51:48.501Z,100623.83
2018-05-03T23:54:16.267Z,100629.73
2018-05-03T23:56:43.989Z,100621.09
2018-05-03T23:59:11.795Z,100621.75
